Pagrindinis puslapis
METAR-TAF:

METAR-TAF

Oro uostai :

Mataram, Indonezija

platuma: 08-45-29S, ilguma: 116-16-35E, Aukštis: 97 m

Dabartinis oras

Ataskaita buvo paskelbta 18 minutes, ne 20:00 UTC
Vėjas 3 kt iš Rytų/Pietryčių
Temperatūra 23°C
Drėgmė 89%
Slėgis 1013 hPa
Matomumas: 7000 m
Išsisklaidę debesys ne aukštis 1600 ft

METAR: WADL 202000Z 12003KT 7000 SCT016 23/21 Q1013 NOSIG

Laikas: 03:18 (20:18 UTC)

Prognozė

Ataskaita buvo paskelbta 3 valandos ir 18 minutes, ne 17:00 UTC
Prognozė galioja nuo 20 metu 18 UTC su 21 metu 18 UTC
Vėjas 7 kt iš Pietryčių
Matomumas: 7000 m
Išsisklaidę debesys ne aukštis 1600 ft

TAF: WADL 201700Z 2018/2118 13007KT 7000 SCT016

Orai ataskaitas ir orų prognozės (METAR, TAF).

turimą stotys yra geltonos ir raudonos taškus žemėlapyje.

Perkelti pele per norėdami pamatyti stoties vardą.

Tada spustelėkite, norėdami matyti oro stebėjimo ir prognozės.

Norėdami pakeisti žemėlapį: spustelėkite ant žalios mygtukų su juodo kryžiaus žemyn,; žalią mygtuką su brūkšneliu, jei norite nutolinti; arba žalių rodyklių gretimoms žemėlapius.


METAR-TAF: